createdAt,value
2023-02-08T00:02:53.383Z,72.17
2023-02-08T00:08:25.126Z,72.01
2023-02-08T00:13:56.703Z,70.69
2023-02-08T00:19:28.643Z,70.72
2023-02-08T00:25:01.319Z,72.31
2023-02-08T00:30:32.121Z,73.2
2023-02-08T00:36:03.616Z,73.99
2023-02-08T00:41:35.291Z,74.38
2023-02-08T00:47:07.122Z,74.5
2023-02-08T00:52:45.155Z,75.16
2023-02-08T00:58:18.158Z,74.96
2023-02-08T01:03:48.567Z,75.03
2023-02-08T01:09:20.319Z,75.0
2023-02-08T01:14:52.204Z,75.01
2023-02-08T01:20:23.840Z,75.2
2023-02-08T01:25:56.054Z,75.36
2023-02-08T01:31:27.302Z,75.6
2023-02-08T01:36:59.006Z,75.42
2023-02-08T01:42:30.797Z,75.46
2023-02-08T01:48:02.603Z,75.36
2023-02-08T01:53:40.638Z,75.16
2023-02-08T01:59:12.821Z,75.45
2023-02-08T02:04:44.288Z,75.82
2023-02-08T02:10:15.881Z,75.54
2023-02-08T02:15:47.569Z,75.76
2023-02-08T02:21:19.576Z,75.48
2023-02-08T02:26:50.877Z,75.56
2023-02-08T02:32:22.712Z,75.93
2023-02-08T02:37:54.579Z,75.69
2023-02-08T02:43:26.057Z,75.85
2023-02-08T02:48:57.859Z,75.94
2023-02-08T02:54:34.002Z,75.74
2023-02-08T03:00:05.726Z,76.14
2023-02-08T03:05:37.552Z,76.36
2023-02-08T03:11:09.137Z,76.62
2023-02-08T03:16:40.962Z,76.49
2023-02-08T03:22:12.538Z,76.53
2023-02-08T03:27:44.269Z,76.32
2023-02-08T03:33:16.083Z,76.76
2023-02-08T03:38:47.718Z,77.03
2023-02-08T03:44:19.499Z,77.32
2023-02-08T03:49:51.230Z,77.75
2023-02-08T03:55:27.196Z,77.6
2023-02-08T04:00:59.223Z,77.79
2023-02-08T04:06:30.921Z,78.0
2023-02-08T04:12:02.626Z,77.81
2023-02-08T04:17:34.364Z,77.82
2023-02-08T04:23:06.024Z,77.67
2023-02-08T04:28:37.833Z,77.68
2023-02-08T04:34:09.597Z,78.22
2023-02-08T04:39:41.463Z,78.37
2023-02-08T04:45:13.049Z,78.2
2023-02-08T04:50:44.683Z,78.37
2023-02-08T04:56:22.987Z,77.94
2023-02-08T05:01:54.782Z,78.51
2023-02-08T05:07:26.383Z,78.36
2023-02-08T05:12:57.992Z,78.47
2023-02-08T05:18:29.798Z,78.57
2023-02-08T05:24:01.527Z,78.51
2023-02-08T05:29:33.183Z,78.88
2023-02-08T05:35:05.032Z,78.78
2023-02-08T05:40:36.783Z,78.73
2023-02-08T05:46:08.273Z,79.63
2023-02-08T05:51:39.998Z,79.58
2023-02-08T05:57:16.129Z,80.05
2023-02-08T06:02:47.965Z,79.82
2023-02-08T06:08:19.713Z,78.95
2023-02-08T06:13:51.388Z,78.67
2023-02-08T06:19:23.183Z,78.27
2023-02-08T06:24:55.453Z,78.87
2023-02-08T06:30:26.730Z,78.98
2023-02-08T06:35:58.391Z,79.19
2023-02-08T06:41:30.129Z,79.07
2023-02-08T06:47:01.824Z,78.97
2023-02-08T06:52:33.644Z,78.56
2023-02-08T06:58:09.728Z,79.06
2023-02-08T07:03:41.334Z,79.29
2023-02-08T07:09:13.044Z,79.14
2023-02-08T07:14:44.847Z,80.14
2023-02-08T07:20:17.317Z,80.86
2023-02-08T07:25:48.365Z,80.72
2023-02-08T07:31:20.145Z,80.37
2023-02-08T07:36:51.713Z,80.34
2023-02-08T07:42:23.492Z,79.67
2023-02-08T07:47:55.524Z,78.89
2023-02-08T07:53:27.015Z,78.52
2023-02-08T07:59:03.098Z,77.83
2023-02-08T08:04:34.907Z,76.93
2023-02-08T08:10:06.789Z,77.88
2023-02-08T08:15:39.378Z,77.18
2023-02-08T08:21:09.975Z,75.23
2023-02-08T08:26:41.766Z,76.59
2023-02-08T08:32:13.599Z,67.39
2023-02-08T08:37:45.744Z,70.02
2023-02-08T08:43:17.494Z,69.72
2023-02-08T08:48:49.491Z,69.69
2023-02-08T08:54:20.490Z,70.83
2023-02-08T08:59:56.540Z,71.37
2023-02-08T09:05:28.304Z,68.55
2023-02-08T09:10:59.987Z,67.27
2023-02-08T09:16:56.926Z,65.83
2023-02-08T09:22:28.464Z,65.61
2023-02-08T09:28:00.336Z,64.2
2023-02-08T09:33:37.073Z,64.38
2023-02-08T09:39:03.644Z,64.07
2023-02-08T09:44:35.553Z,62.63
2023-02-08T09:50:07.012Z,63.56
2023-02-08T09:55:39.194Z,62.93
2023-02-08T10:01:14.969Z,62.25
2023-02-08T10:06:50.049Z,63.41
2023-02-08T10:12:18.478Z,62.09
2023-02-08T10:17:50.627Z,63.08
2023-02-08T10:23:22.949Z,62.17
2023-02-08T10:28:53.764Z,61.9
2023-02-08T10:34:25.253Z,62.25
2023-02-08T10:39:56.981Z,62.19
2023-02-08T10:45:28.742Z,61.8
2023-02-08T10:51:01.713Z,62.2
2023-02-08T10:56:32.138Z,62.84
2023-02-08T11:02:08.394Z,61.7
2023-02-08T11:07:40.031Z,62.68
2023-02-08T11:13:11.748Z,62.46
2023-02-08T11:18:43.498Z,60.58
2023-02-08T11:24:15.266Z,60.57
2023-02-08T11:29:47.071Z,61.9
2023-02-08T11:35:19.242Z,60.5
2023-02-08T11:40:50.336Z,59.4
2023-02-08T11:46:22.322Z,60.65
2023-02-08T11:51:53.813Z,58.42
2023-02-08T11:57:26.002Z,57.87
2023-02-08T12:03:04.116Z,58.07
2023-02-08T12:08:35.506Z,56.0
2023-02-08T12:14:07.186Z,58.19
2023-02-08T12:19:38.851Z,56.04
2023-02-08T12:25:10.577Z,56.25
2023-02-08T12:30:42.410Z,56.25
2023-02-08T12:36:14.167Z,56.2
2023-02-08T12:41:45.812Z,58.0
2023-02-08T12:47:17.677Z,55.8
2023-02-08T12:52:49.216Z,57.75
2023-02-08T12:58:21.131Z,56.54
2023-02-08T13:03:59.052Z,56.44
2023-02-08T13:09:35.059Z,56.73
2023-02-08T13:15:03.611Z,57.57
2023-02-08T13:20:34.175Z,55.04
2023-02-08T13:26:05.934Z,55.49
2023-02-08T13:31:37.651Z,55.03
2023-02-08T13:37:25.588Z,56.72
2023-02-08T13:42:41.364Z,56.73
2023-02-08T13:48:12.772Z,57.92
2023-02-08T13:53:44.599Z,58.76
2023-02-08T13:59:18.039Z,56.82
2023-02-08T14:04:54.436Z,57.87
2023-02-08T14:10:26.144Z,57.32
2023-02-08T14:15:57.963Z,58.35
2023-02-08T14:21:29.868Z,57.88
2023-02-08T14:27:01.774Z,58.75
2023-02-08T14:32:33.374Z,59.18
2023-02-08T14:38:05.086Z,60.27
2023-02-08T14:43:36.789Z,59.52
2023-02-08T14:49:08.561Z,60.53
2023-02-08T14:54:40.246Z,61.06
2023-02-08T15:00:11.996Z,61.27
2023-02-08T15:05:48.169Z,60.52
2023-02-08T15:11:19.926Z,60.25
2023-02-08T15:16:51.582Z,60.84
2023-02-08T15:22:23.214Z,61.4
2023-02-08T15:27:55.216Z,62.51
2023-02-08T15:33:26.807Z,61.15
2023-02-08T15:38:58.650Z,62.3
2023-02-08T15:44:30.217Z,62.08
2023-02-08T15:50:02.634Z,62.7
2023-02-08T15:55:33.556Z,61.66
2023-02-08T16:01:05.788Z,62.34
2023-02-08T16:06:43.683Z,62.73
2023-02-08T16:12:15.152Z,62.89
2023-02-08T16:17:46.944Z,63.9
2023-02-08T16:23:18.799Z,64.4
2023-02-08T16:28:50.449Z,65.0
2023-02-08T16:34:22.193Z,64.86
2023-02-08T16:39:53.916Z,65.32
2023-02-08T16:45:25.689Z,65.27
2023-02-08T16:50:57.541Z,65.8
2023-02-08T16:56:29.226Z,66.06
2023-02-08T17:02:01.515Z,66.77
2023-02-08T17:07:37.139Z,67.17
2023-02-08T17:13:21.338Z,67.93
2023-02-08T17:18:40.796Z,67.83
2023-02-08T17:24:12.484Z,68.97
2023-02-08T17:29:44.911Z,68.42
2023-02-08T17:35:16.545Z,68.68
2023-02-08T17:40:48.381Z,70.06
2023-02-08T17:46:20.806Z,70.57
2023-02-08T17:51:51.761Z,69.54
2023-02-08T17:57:23.481Z,69.85
2023-02-08T18:02:56.149Z,70.59
2023-02-08T18:08:31.346Z,70.86
2023-02-08T18:14:02.991Z,71.1
2023-02-08T18:19:34.710Z,70.3
2023-02-08T18:25:06.625Z,70.53
2023-02-08T18:30:38.216Z,70.32
2023-02-08T18:36:09.909Z,70.35
2023-02-08T18:41:41.702Z,70.09
2023-02-08T18:47:13.685Z,70.5
2023-02-08T18:52:44.976Z,70.73
2023-02-08T18:58:16.672Z,70.21
2023-02-08T19:03:48.417Z,70.76
2023-02-08T19:09:24.641Z,70.75
2023-02-08T19:14:56.418Z,70.62
2023-02-08T19:20:28.310Z,70.77
2023-02-08T19:25:59.993Z,70.52
2023-02-08T19:31:32.015Z,71.0
2023-02-08T19:37:03.501Z,71.55
2023-02-08T19:42:35.191Z,71.03
2023-02-08T19:48:07.359Z,71.31
2023-02-08T19:53:38.704Z,70.92
2023-02-08T19:59:10.362Z,70.83
2023-02-08T20:04:42.790Z,71.85
2023-02-08T20:10:18.395Z,71.38
2023-02-08T20:15:50.025Z,71.65
2023-02-08T20:21:21.812Z,71.76
2023-02-08T20:26:53.571Z,72.31
2023-02-08T20:32:26.007Z,72.47
2023-02-08T20:37:57.083Z,72.34
2023-02-08T20:43:28.702Z,72.26
2023-02-08T20:49:00.978Z,72.51
2023-02-08T20:54:32.156Z,72.89
2023-02-08T21:00:04.101Z,73.61
2023-02-08T21:05:35.659Z,72.55
2023-02-08T21:11:13.975Z,72.3
2023-02-08T21:16:45.864Z,73.09
2023-02-08T21:22:17.317Z,73.57
2023-02-08T21:27:52.303Z,73.77
2023-02-08T21:33:23.647Z,73.82
2023-02-08T21:38:55.427Z,74.05
2023-02-08T21:44:27.330Z,74.53
2023-02-08T21:49:59.476Z,74.45
2023-02-08T21:55:30.826Z,74.48
2023-02-08T22:01:02.508Z,74.55
2023-02-08T22:06:34.793Z,74.57
2023-02-08T22:12:13.644Z,74.68
2023-02-08T22:17:43.977Z,74.71
2023-02-08T22:23:15.744Z,74.99
2023-02-08T22:28:47.352Z,75.26
2023-02-08T22:34:19.436Z,75.22
2023-02-08T22:39:51.035Z,75.74
2023-02-08T22:45:22.715Z,76.1
2023-02-08T22:50:54.446Z,76.21
2023-02-08T22:56:26.010Z,76.09
2023-02-08T23:01:57.971Z,76.01
2023-02-08T23:07:29.507Z,75.76
2023-02-08T23:13:06.681Z,76.14
2023-02-08T23:18:37.295Z,76.47
2023-02-08T23:24:10.255Z,75.86
2023-02-08T23:29:41.038Z,75.85
2023-02-08T23:35:12.477Z,76.4
2023-02-08T23:40:44.920Z,75.82
2023-02-08T23:46:17.423Z,76.08
2023-02-08T23:51:47.590Z,76.67
2023-02-08T23:57:19.369Z,76.47
